Time;durP1;ratioP1;P1;durP2;ratioP2;P2;SDS_P1;SDS_P2;PMS_P1;PMS_P2;Temp;Humidity;BMP_temperature;BMP_pressure;BME280_temperature;BME280_humidity;BME280_pressure;Samples;Min_cycle;Max_cycle;Signal;HPM_P1;HPM_P2
2023/03/26 00:01:45;;;;;;;18.05;10.55;;;;;;;6.96;70.08;99730.28;10499723;28;20049;-79
2023/03/26 00:06:49;;;;;;;16.50;8.65;;;;;;;6.54;70.89;99680.94;10499149;28;20044;-79
2023/03/26 00:11:49;;;;;;;23.05;9.00;;;;;;;7.07;71.22;99788.09;10498905;28;20122;-79
2023/03/26 00:16:50;;;;;;;13.23;8.20;;;;;;;7.00;71.41;99747.44;10498608;28;20105;-79
2023/03/26 00:21:52;;;;;;;12.88;8.65;;;;;;;7.15;71.38;99745.03;10498478;28;20047;-79
2023/03/26 00:26:52;;;;;;;13.25;8.95;;;;;;;7.25;71.99;99737.81;10513643;28;20040;-79
2023/03/26 00:31:53;;;;;;;15.63;8.80;;;;;;;7.09;71.75;99725.41;10503210;28;20499;-79
2023/03/26 00:36:54;;;;;;;16.98;8.73;;;;;;;6.06;72.38;99590.06;10540615;28;20040;-79
2023/03/26 00:41:55;;;;;;;17.13;9.07;;;;;;;6.31;72.44;99647.22;10518787;28;20044;-78
2023/03/26 00:46:56;;;;;;;12.93;8.55;;;;;;;6.51;72.99;99710.28;10497618;28;20047;-78
2023/03/26 00:51:56;;;;;;;16.05;8.45;;;;;;;6.01;73.83;99660.88;10497083;28;20047;-79
2023/03/26 00:56:58;;;;;;;11.32;7.82;;;;;;;5.60;74.61;99599.97;10498035;28;20477;-78
2023/03/26 01:01:59;;;;;;;15.10;8.98;;;;;;;6.54;74.48;99771.50;10497357;28;20068;-78
2023/03/26 01:07:15;;;;;;;12.32;8.43;;;;;;;5.28;74.78;99567.13;10496849;28;20080;-78
2023/03/26 01:12:23;;;;;;;14.10;7.70;;;;;;;6.42;75.73;99754.28;10496818;28;20044;-78
2023/03/26 01:17:23;;;;;;;10.93;6.38;;;;;;;5.55;74.13;99628.59;10496925;28;20043;-78
2023/03/26 01:22:26;;;;;;;12.35;8.52;;;;;;;6.22;74.42;99753.63;10496068;28;20040;-78
2023/03/26 01:27:37;;;;;;;15.48;9.00;;;;;;;6.20;74.63;99755.63;10496680;28;20047;-78
2023/03/26 01:33:04;;;;;;;11.77;6.35;;;;;;;6.34;73.27;99762.97;10496316;28;20495;-78
2023/03/26 01:38:38;;;;;;;9.68;6.53;;;;;;;6.79;72.22;99761.06;10495011;28;20044;-78
2023/03/26 01:43:42;;;;;;;8.60;6.53;;;;;;;7.13;70.62;99744.38;10528027;28;20089;-78
2023/03/26 01:48:45;;;;;;;11.53;7.87;;;;;;;6.85;69.58;99655.69;10537915;28;20068;-77
2023/03/26 01:53:47;;;;;;;16.35;8.65;;;;;;;6.76;69.49;99601.22;10537802;28;20056;-78
2023/03/26 01:59:26;;;;;;;12.43;7.20;;;;;;;7.66;69.70;99716.75;10552924;28;20127;-78
2023/03/26 02:04:39;;;;;;;14.60;7.40;;;;;;;7.59;69.05;99692.75;10536936;28;20062;-78
2023/03/26 02:09:45;;;;;;;11.88;7.47;;;;;;;7.40;69.70;99690.44;10537369;28;20167;-78
2023/03/26 02:14:46;;;;;;;17.08;7.25;;;;;;;7.67;69.11;99724.50;10537344;28;20075;-78
2023/03/26 02:19:47;;;;;;;11.57;6.82;;;;;;;7.77;68.77;99719.03;10543901;28;20075;-78
2023/03/26 02:24:48;;;;;;;16.73;7.43;;;;;;;7.14;69.68;99690.56;10545460;28;20119;-78
2023/03/26 02:29:49;;;;;;;10.27;6.78;;;;;;;7.12;70.20;99711.88;10545780;28;20063;-78
2023/03/26 02:34:52;;;;;;;12.55;7.30;;;;;;;6.13;70.80;99575.25;10545075;28;20047;-78
2023/03/26 02:39:53;;;;;;;13.50;7.90;;;;;;;5.87;71.74;99548.91;10544662;28;20044;-78
2023/03/26 02:44:54;;;;;;;15.73;7.28;;;;;;;6.05;71.25;99591.88;10545014;28;20398;-78
2023/03/26 02:49:54;;;;;;;15.40;8.73;;;;;;;6.45;73.09;99698.56;10544775;28;20059;-78
2023/03/26 02:54:55;;;;;;;15.43;7.80;;;;;;;5.41;72.77;99548.28;10544704;28;20056;-78
2023/03/26 02:59:57;;;;;;;11.80;7.25;;;;;;;5.94;73.35;99592.13;10524994;28;20048;-78
2023/03/26 03:05:00;;;;;;;10.38;7.72;;;;;;;6.25;73.22;99637.31;10517939;28;20116;-78
2023/03/26 03:10:02;;;;;;;13.32;8.35;;;;;;;6.12;73.72;99586.78;10517381;28;20503;-78
2023/03/26 03:15:03;;;;;;;14.00;7.97;;;;;;;6.70;73.60;99688.97;10501593;28;20041;-78
2023/03/26 03:20:08;;;;;;;12.82;8.65;;;;;;;6.35;74.28;99610.81;10501442;28;20040;-78
2023/03/26 03:25:13;;;;;;;24.92;8.57;;;;;;;6.26;74.11;99557.19;10528812;28;20044;-78
2023/03/26 03:30:14;;;;;;;23.65;8.68;;;;;;;6.71;73.94;99607.97;10521579;28;20127;-77
2023/03/26 03:35:14;;;;;;;15.65;8.77;;;;;;;6.62;73.73;99600.00;10510065;28;20131;-77
2023/03/26 03:40:16;;;;;;;19.10;9.48;;;;;;;7.00;73.91;99665.59;10513551;28;20097;-77
2023/03/26 03:45:17;;;;;;;12.43;8.45;;;;;;;7.15;74.34;99664.00;10512639;28;20040;-77
2023/03/26 03:50:17;;;;;;;12.82;9.25;;;;;;;7.29;73.77;99676.53;10517707;28;20444;-77
2023/03/26 03:55:18;;;;;;;19.67;8.63;;;;;;;7.23;74.29;99644.69;10511411;28;20151;-77
2023/03/26 04:00:21;;;;;;;17.42;8.40;;;;;;;7.32;74.09;99659.53;10523226;28;20039;-77
2023/03/26 04:05:22;;;;;;;15.02;8.85;;;;;;;7.62;73.62;99666.00;10534686;28;20051;-77
2023/03/26 04:10:23;;;;;;;15.68;9.95;;;;;;;7.17;73.52;99539.69;10504306;28;20045;-77
2023/03/26 04:15:23;;;;;;;14.18;8.77;;;;;;;7.72;73.11;99568.03;10511498;28;20043;-77
2023/03/26 04:20:24;;;;;;;20.13;9.43;;;;;;;8.17;73.32;99632.72;10535112;28;20040;-80
2023/03/26 04:25:29;;;;;;;25.00;12.88;;;;;;;8.41;72.88;99613.31;10533946;28;20048;-78
2023/03/26 04:30:30;;;;;;;14.82;8.90;;;;;;;8.56;72.51;99611.59;10530490;28;20036;-79
2023/03/26 04:35:34;;;;;;;17.00;9.50;;;;;;;8.97;73.03;99632.53;10540286;28;20052;-79
2023/03/26 04:40:36;;;;;;;15.27;9.18;;;;;;;9.00;73.17;99642.78;10501146;28;20131;-78
2023/03/26 04:45:38;;;;;;;19.25;9.88;;;;;;;9.50;72.68;99652.03;10497968;28;20505;-78
2023/03/26 04:50:44;;;;;;;15.70;10.10;;;;;;;9.08;72.63;99507.63;10539079;28;20502;-79
2023/03/26 04:56:05;;;;;;;15.52;10.30;;;;;;;10.23;73.65;99631.13;10538843;28;20146;-78
2023/03/26 05:01:06;;;;;;;16.08;10.35;;;;;;;10.19;72.46;99629.84;10539226;28;20060;-78
2023/03/26 05:06:11;;;;;;;19.67;12.05;;;;;;;9.94;73.79;99569.09;10521159;28;20035;-77
2023/03/26 05:11:12;;;;;;;25.92;14.68;;;;;;;10.18;73.40;99557.38;10514140;28;20045;-77
2023/03/26 05:16:13;;;;;;;25.35;15.70;;;;;;;10.52;73.56;99599.28;10503760;28;20059;-77
2023/03/26 05:21:13;;;;;;;26.80;16.67;;;;;;;10.33;74.25;99585.75;10514358;28;20512;-78
2023/03/26 05:26:14;;;;;;;24.23;14.43;;;;;;;10.59;73.93;99627.75;10511452;28;20131;-79
2023/03/26 05:31:19;;;;;;;30.50;14.93;;;;;;;10.71;74.35;99620.97;10510127;28;20090;-78
2023/03/26 05:36:23;;;;;;;28.02;15.30;;;;;;;10.76;74.24;99602.63;10510255;28;20484;-78
2023/03/26 05:41:24;;;;;;;22.40;13.23;;;;;;;11.19;73.17;99630.06;10507383;28;20166;-79
2023/03/26 05:46:26;;;;;;;20.25;12.27;;;;;;;11.27;73.06;99604.34;10507612;28;20081;-79
2023/03/26 05:51:26;;;;;;;20.35;11.45;;;;;;;11.41;72.84;99609.59;10547423;28;20079;-79
2023/03/26 05:56:28;;;;;;;15.50;10.10;;;;;;;11.58;71.95;99593.38;10524624;28;20052;-79
2023/03/26 06:01:28;;;;;;;13.02;9.85;;;;;;;11.69;71.42;99606.13;10503546;28;20044;-78
2023/03/26 06:06:29;;;;;;;22.27;10.57;;;;;;;11.60;71.25;99530.16;10502934;28;20435;-80
2023/03/26 06:11:30;;;;;;;16.48;9.82;;;;;;;12.12;71.23;99605.25;10513703;28;20074;-77
2023/03/26 06:16:32;;;;;;;14.13;9.73;;;;;;;11.98;70.63;99535.94;10523517;28;20052;-77
2023/03/26 06:21:32;;;;;;;16.65;10.27;;;;;;;12.43;70.02;99586.97;10510733;28;20115;-76
2023/03/26 06:26:33;;;;;;;12.65;9.05;;;;;;;12.66;69.66;99588.50;10536773;28;20040;-77
2023/03/26 06:31:34;;;;;;;15.20;9.95;;;;;;;12.94;69.06;99569.69;10536350;28;20036;-76
2023/03/26 06:36:35;;;;;;;20.00;10.18;;;;;;;13.39;68.34;99585.97;10535454;28;20040;-76
2023/03/26 06:41:36;;;;;;;19.08;9.68;;;;;;;13.42;67.95;99549.03;10532346;28;20559;-81
2023/03/26 06:46:37;;;;;;;17.90;9.63;;;;;;;13.21;67.18;99526.03;10520045;28;20044;-82
2023/03/26 06:51:39;;;;;;;10.32;7.68;;;;;;;12.47;68.01;99470.16;10521929;28;20048;-79
2023/03/26 06:56:42;;;;;;;13.70;8.63;;;;;;;13.09;67.32;99506.34;10512033;28;20150;-79
2023/03/26 07:01:44;;;;;;;;;;;;;;;14.15;65.87;99572.97;10536378;28;20047;-79
2023/03/26 07:06:45;;;;;;;14.43;8.80;;;;;;;13.76;65.73;99492.94;10526087;28;19970;-81
2023/03/26 07:11:46;;;;;;;13.77;8.43;;;;;;;14.69;64.90;99554.03;10501343;28;20389;-75
2023/03/26 07:16:47;;;;;;;15.90;11.00;;;;;;;14.77;64.20;99529.72;10502179;28;20508;-74
2023/03/26 07:21:48;;;;;;;21.17;11.30;;;;;;;14.85;63.90;99537.50;10507457;28;20096;-75
2023/03/26 07:27:08;;;;;;;16.27;11.02;;;;;;;14.91;63.90;99509.09;10543134;28;20458;-75
2023/03/26 07:32:47;;;;;;;14.77;10.38;;;;;;;15.56;62.31;99530.19;10532145;28;20485;-74
2023/03/26 07:38:15;;;;;;;14.88;10.65;;;;;;;15.74;62.43;99535.59;10488641;28;20044;-75
2023/03/26 07:43:16;;;;;;;12.52;10.05;;;;;;;15.26;62.35;99474.66;10528637;28;20052;-72
2023/03/26 07:48:20;;;;;;;14.25;9.68;;;;;;;15.72;61.11;99534.97;10513518;28;20098;-73
2023/03/26 07:53:21;;;;;;;;;;;;;;;16.10;60.79;99524.06;10517421;28;20056;-74
2023/03/26 07:59:01;;;;;;;13.27;8.68;;;;;;;15.82;60.62;99529.91;10542374;28;19920;-73
2023/03/26 08:04:36;;;;;;;16.75;9.02;;;;;;;16.19;59.88;99537.97;10518905;28;20051;-75
2023/03/26 08:10:01;;;;;;;12.30;8.95;;;;;;;16.41;59.15;99541.81;10540004;28;20040;-73
2023/03/26 08:15:07;;;;;;;15.00;8.48;;;;;;;16.56;58.64;99527.19;10541187;28;20050;-74
2023/03/26 08:20:42;;;;;;;11.43;8.35;;;;;;;16.83;57.83;99517.75;10540583;28;20063;-74
2023/03/26 08:25:58;;;;;;;11.40;7.97;;;;;;;16.66;57.00;99528.31;10541925;28;20044;-74
2023/03/26 08:31:01;;;;;;;20.92;8.98;;;;;;;16.42;57.39;99515.81;10539138;28;20093;-74
2023/03/26 08:36:02;;;;;;;13.40;8.50;;;;;;;16.54;57.28;99510.50;10540345;28;20491;-73
2023/03/26 08:41:15;;;;;;;11.85;7.97;;;;;;;16.86;56.23;99511.94;10540709;28;20046;-75
2023/03/26 08:46:45;;;;;;;13.18;6.97;;;;;;;17.10;55.20;99502.06;10540106;28;20040;-75
2023/03/26 08:52:23;;;;;;;18.17;7.60;;;;;;;16.49;54.08;99368.31;10539512;28;20035;-73
2023/03/26 08:57:48;;;;;;;13.23;7.05;;;;;;;17.54;54.13;99488.31;10539844;28;20121;-72
2023/03/26 09:03:07;;;;;;;9.25;6.70;;;;;;;17.65;53.24;99498.25;10538961;28;20058;-73
2023/03/26 09:08:16;;;;;;;9.75;7.22;;;;;;;17.75;53.58;99501.16;10538544;28;20391;-73
2023/03/26 09:13:42;;;;;;;9.60;6.90;;;;;;;17.77;52.86;99488.34;10539139;28;20461;-73
2023/03/26 09:19:07;;;;;;;10.63;7.20;;;;;;;17.72;52.78;99501.63;10538700;28;20036;-72
2023/03/26 09:24:26;;;;;;;10.68;7.20;;;;;;;18.23;52.92;99497.34;10537898;28;20040;-72
2023/03/26 09:29:36;;;;;;;13.32;6.70;;;;;;;18.14;50.17;99420.00;10537712;28;20089;-72
2023/03/26 09:35:04;;;;;;;10.98;6.32;;;;;;;18.66;50.97;99501.34;10538261;28;20040;-72
2023/03/26 09:40:16;;;;;;;10.88;6.10;;;;;;;18.37;50.65;99441.41;10538331;28;20044;-72
2023/03/26 09:45:22;;;;;;;13.73;7.90;;;;;;;18.65;50.70;99462.09;10537973;28;20086;-71
2023/03/26 09:50:23;;;;;;;10.20;6.40;;;;;;;18.81;50.46;99457.78;10537643;28;20055;-71
2023/03/26 09:55:24;;;;;;;15.23;6.38;;;;;;;18.81;50.04;99457.00;10537724;28;20096;-72
2023/03/26 10:01:07;;;;;;;10.57;6.10;;;;;;;19.03;48.53;99441.75;10537079;28;20553;-72
2023/03/26 10:06:33;;;;;;;11.13;6.32;;;;;;;18.64;48.51;99373.56;10536291;28;20052;-72
2023/03/26 10:11:33;;;;;;;12.55;5.63;;;;;;;18.99;48.27;99454.06;10536737;28;20044;-71
2023/03/26 10:16:55;;;;;;;16.88;4.53;;;;;;;19.28;45.03;99456.66;10537328;28;20101;-71
2023/03/26 10:22:16;;;;;;;13.80;5.50;;;;;;;19.33;44.97;99410.97;10494329;28;20095;-70
2023/03/26 10:27:29;;;;;;;12.80;6.25;;;;;;;19.46;44.84;99448.31;10524409;28;20071;-70
2023/03/26 10:32:55;;;;;;;13.52;5.95;;;;;;;19.39;45.86;99426.13;10551486;28;20123;-71
2023/03/26 10:38:02;;;;;;;27.67;7.80;;;;;;;19.56;46.21;99453.84;10499685;28;20037;-72
2023/03/26 10:43:40;;;;;;;15.23;5.65;;;;;;;19.61;46.51;99458.47;10503198;28;20858;-72
2023/03/26 10:49:08;;;;;;;13.50;7.03;;;;;;;19.80;46.11;99453.63;10502906;28;20040;-73
2023/03/26 10:54:24;;;;;;;10.77;6.03;;;;;;;19.88;45.84;99439.72;10542921;28;20059;-72
2023/03/26 10:59:26;;;;;;;7.15;4.53;;;;;;;20.02;45.61;99426.69;10537461;28;20055;-72
2023/03/26 11:04:39;;;;;;;12.27;4.55;;;;;;;20.46;44.19;99424.72;10502132;28;20043;-72
2023/03/26 11:09:44;;;;;;;10.77;3.90;;;;;;;20.42;43.04;99395.81;10501741;28;20040;-72
2023/03/26 11:15:09;;;;;;;27.70;3.95;;;;;;;20.51;41.90;99373.50;10501800;28;20051;-72
2023/03/26 11:20:32;;;;;;;10.07;4.63;;;;;;;20.68;40.97;99395.00;10501358;28;20040;-71
2023/03/26 11:25:36;;;;;;;9.77;3.88;;;;;;;20.96;41.33;99398.44;10517130;28;20503;-72
2023/03/26 11:31:10;;;;;;;13.50;4.40;;;;;;;20.78;40.90;99383.44;10500969;28;20041;-72
2023/03/26 11:36:18;;;;;;;14.45;6.30;;;;;;;20.67;40.86;99352.06;10517018;28;20049;-72
2023/03/26 11:41:25;;;;;;;10.10;3.88;;;;;;;21.15;39.85;99361.84;10500148;28;20416;-72
2023/03/26 11:46:25;;;;;;;8.48;3.88;;;;;;;21.11;40.00;99324.81;10503189;28;20163;-72
2023/03/26 11:51:37;;;;;;;10.15;3.80;;;;;;;21.14;39.18;99340.50;10526163;28;20133;-72
2023/03/26 11:56:53;;;;;;;8.00;3.97;;;;;;;21.05;39.35;99356.38;10539903;28;20202;-72
2023/03/26 12:02:15;;;;;;;11.07;4.47;;;;;;;20.45;39.91;99287.38;10541330;28;20036;-72
2023/03/26 12:07:22;;;;;;;8.40;4.10;;;;;;;20.75;39.49;99335.38;10503086;28;20128;-72
2023/03/26 12:12:31;;;;;;;8.50;4.03;;;;;;;20.81;39.81;99357.84;10497758;28;20036;-72
2023/03/26 12:17:34;;;;;;;14.18;4.53;;;;;;;20.61;39.74;99371.97;10498888;28;20135;-72
2023/03/26 12:22:37;;;;;;;10.48;4.18;;;;;;;20.04;40.18;99297.81;10500026;28;20040;-72
2023/03/26 12:27:43;;;;;;;12.67;5.30;;;;;;;20.57;40.49;99351.97;10497301;28;20072;-72
2023/03/26 12:32:43;;;;;;;12.88;4.50;;;;;;;20.67;40.91;99350.19;10498625;28;20047;-73
2023/03/26 12:37:46;;;;;;;21.33;4.93;;;;;;;20.31;41.08;99335.53;10498539;28;20488;-71
2023/03/26 12:42:56;;;;;;;13.43;4.85;;;;;;;19.74;41.72;99317.19;10496786;28;20446;-71
2023/03/26 12:47:59;;;;;;;15.55;4.85;;;;;;;19.71;42.67;99380.47;10498178;28;20110;-71
2023/03/26 12:53:16;;;;;;;28.48;6.50;;;;;;;19.25;43.59;99344.06;10508769;28;20488;-72
2023/03/26 12:58:53;;;;;;;12.20;4.82;;;;;;;19.41;44.64;99390.84;10498071;28;20081;-71
2023/03/26 13:04:03;;;;;;;9.07;5.03;;;;;;;18.75;44.79;99340.41;10495940;28;20107;-79
2023/03/26 13:09:32;;;;;;;16.45;6.30;;;;;;;18.86;45.66;99385.25;10500411;28;20036;-76
2023/03/26 13:14:32;;;;;;;12.98;5.50;;;;;;;18.69;46.01;99405.91;10535010;28;20050;-75
2023/03/26 13:20:10;;;;;;;11.07;5.35;;;;;;;18.35;46.74;99341.34;10507945;28;20034;-76
2023/03/26 13:25:17;;;;;;;12.55;5.30;;;;;;;19.19;46.34;99405.09;10511606;28;20504;-76
2023/03/26 13:30:51;;;;;;;15.93;6.47;;;;;;;19.61;46.22;99413.47;10523734;28;20109;-76
2023/03/26 13:36:15;;;;;;;14.20;6.47;;;;;;;19.07;45.83;99342.47;10518092;28;20466;-77
2023/03/26 13:41:19;;;;;;;;;;;;;;;19.49;45.86;99420.06;10515169;28;20048;-77
2023/03/26 13:46:30;;;;;;;;;;;;;;;19.06;46.84;99425.13;10513923;28;19961;-76
2023/03/26 13:51:39;;;;;;;17.02;5.90;;;;;;;18.66;47.43;99430.59;10513336;28;19924;-75
2023/03/26 13:56:51;;;;;;;15.05;6.88;;;;;;;18.37;47.88;99416.41;10517561;28;20047;-75
2023/03/26 14:01:55;;;;;;;17.55;6.68;;;;;;;18.12;48.04;99411.34;10513714;28;20040;-76
2023/03/26 14:07:07;;;;;;;12.27;5.80;;;;;;;18.07;48.86;99440.81;10519739;28;20040;-77
2023/03/26 14:12:21;;;;;;;15.95;5.80;;;;;;;17.96;49.35;99461.31;10528640;28;20488;-76
2023/03/26 14:17:25;;;;;;;;;;;;;;;17.95;49.07;99454.31;10524970;28;20047;-77
2023/03/26 14:22:44;;;;;;;;;;;;;;;17.75;49.40;99458.16;10523812;28;19964;-76
2023/03/26 14:28:00;;;;;;;18.67;10.02;;;;;;;16.40;52.10;99309.66;10528419;28;19927;-77
2023/03/26 14:33:06;;;;;;;15.32;8.90;;;;;;;17.09;52.44;99456.69;10529702;28;20066;-75
2023/03/26 14:38:28;;;;;;;80.57;35.60;;;;;;;16.89;54.42;99451.66;10526929;28;20198;-76
2023/03/26 14:44:04;;;;;;;21.60;13.10;;;;;;;16.69;55.99;99457.28;10524447;28;20040;-77
2023/03/26 14:49:07;;;;;;;20.63;11.05;;;;;;;15.94;55.28;99383.53;10524592;28;20044;-74
2023/03/26 14:54:12;;;;;;;20.70;12.93;;;;;;;15.99;56.93;99417.66;10525777;28;20084;-74
2023/03/26 14:59:37;;;;;;;24.48;13.15;;;;;;;16.14;58.49;99477.00;10502457;28;20075;-74
2023/03/26 15:04:53;;;;;;;24.83;14.77;;;;;;;15.87;59.21;99487.22;10527422;28;20055;-74
2023/03/26 15:10:10;;;;;;;25.58;13.57;;;;;;;15.23;60.00;99416.22;10543255;28;20040;-74
2023/03/26 15:15:33;;;;;;;38.78;21.17;;;;;;;15.16;60.77;99452.91;10544206;28;20051;-74
2023/03/26 15:21:04;;;;;;;101.13;46.33;;;;;;;14.91;61.63;99445.72;10544354;28;20047;-74
2023/03/26 15:26:40;;;;;;;75.00;37.22;;;;;;;14.92;62.50;99492.81;10541779;28;20058;-74
2023/03/26 15:31:53;;;;;;;88.20;40.63;;;;;;;14.21;61.51;99408.34;10542257;28;20046;-75
2023/03/26 15:37:12;;;;;;;91.47;47.67;;;;;;;14.05;63.79;99403.50;10542974;28;20044;-75
2023/03/26 15:42:30;;;;;;;96.90;46.10;;;;;;;14.48;64.13;99513.22;10543230;28;20044;-75
2023/03/26 15:47:41;;;;;;;90.60;40.58;;;;;;;14.23;63.37;99498.94;10504173;28;20470;-75
2023/03/26 15:53:09;;;;;;;110.75;45.67;;;;;;;13.96;65.60;99479.53;10517691;28;20082;-76
2023/03/26 15:58:35;;;;;;;64.60;31.58;;;;;;;13.67;66.62;99454.97;10511444;28;20067;-76
2023/03/26 16:03:50;;;;;;;71.38;30.80;;;;;;;13.91;66.60;99537.06;10499141;28;20514;-77
2023/03/26 16:09:18;;;;;;;48.13;23.55;;;;;;;13.82;67.60;99548.16;10499475;28;20500;-76
2023/03/26 16:14:22;;;;;;;54.17;29.20;;;;;;;13.14;66.23;99455.06;10499674;28;20064;-77
2023/03/26 16:19:35;;;;;;;158.47;64.73;;;;;;;13.35;67.59;99536.75;10523301;28;20044;-76
2023/03/26 16:24:43;;;;;;;90.20;40.10;;;;;;;13.37;68.69;99556.00;10539940;28;20043;-76
2023/03/26 16:30:15;;;;;;;80.82;37.63;;;;;;;13.30;70.33;99566.69;10539974;28;20051;-76
2023/03/26 16:35:16;;;;;;;55.85;25.23;;;;;;;13.16;67.71;99576.50;10535028;28;20052;-77
2023/03/26 16:45:38;;;;;;;21.33;12.63;;;;;;;12.73;69.12;99587.47;11725820;22;20073;-80
2023/03/26 16:50:52;;;;;;;16.10;11.95;;;;;;;12.35;70.84;99528.53;10373804;28;20489;-80
2023/03/26 16:55:58;;;;;;;22.70;11.63;;;;;;;12.63;70.09;99576.38;10373848;28;20073;-78
2023/03/26 17:01:40;;;;;;;28.52;15.20;;;;;;;12.45;72.35;99568.13;10374650;28;20097;-82
2023/03/26 17:07:22;;;;;;;31.33;14.73;;;;;;;12.16;73.10;99567.38;10373780;28;20042;-84
2023/03/26 17:12:53;;;;;;;117.07;44.17;;;;;;;11.47;72.92;99484.88;10361865;28;20111;-83
2023/03/26 17:18:31;;;;;;;216.60;76.78;;;;;;;11.79;73.92;99571.22;10373904;28;20053;-83
2023/03/26 17:24:09;;;;;;;167.32;57.67;;;;;;;11.80;74.17;99571.03;10373128;28;20045;-83
2023/03/26 17:29:32;;;;;;;182.43;72.55;;;;;;;11.64;71.20;99580.13;10373000;28;20041;-83
2023/03/26 17:34:32;;;;;;;92.63;39.97;;;;;;;11.41;71.22;99585.66;10370602;28;20079;-84
2023/03/26 17:39:39;;;;;;;81.35;35.08;;;;;;;11.36;74.32;99587.25;10369178;28;20053;-83
2023/03/26 17:45:00;;;;;;;70.45;28.67;;;;;;;11.39;73.45;99603.66;10372593;28;20057;-83
2023/03/26 17:50:09;;;;;;;41.95;20.27;;;;;;;10.67;73.14;99505.47;10371669;28;20038;-82
2023/03/26 17:55:19;;;;;;;33.00;16.95;;;;;;;11.00;73.74;99595.31;10372605;28;20505;-83
2023/03/26 18:00:24;;;;;;;20.02;12.07;;;;;;;10.72;73.17;99609.31;10372032;28;20413;-83
2023/03/26 18:05:28;;;;;;;19.52;11.27;;;;;;;10.11;73.59;99590.13;10372023;28;20599;-83
2023/03/26 18:10:37;;;;;;;23.45;13.52;;;;;;;9.65;75.66;99530.09;10372306;28;20092;-83
2023/03/26 18:15:44;;;;;;;24.17;14.10;;;;;;;10.28;75.20;99610.19;10372282;28;20049;-81
2023/03/26 18:20:48;;;;;;;32.70;15.13;;;;;;;10.21;76.10;99614.56;10371895;28;20077;-82
2023/03/26 18:25:57;;;;;;;31.13;14.57;;;;;;;9.91;77.86;99565.97;10372560;28;20497;-83
2023/03/26 18:31:08;;;;;;;199.80;68.05;;;;;;;9.88;78.10;99575.13;10371264;28;20355;-83
2023/03/26 18:36:10;;;;;;;146.95;47.78;;;;;;;9.93;75.90;99601.94;10371274;28;20054;-82
2023/03/26 18:41:22;;;;;;;44.35;19.27;;;;;;;9.71;77.21;99614.25;10371874;28;20042;-83
2023/03/26 18:46:24;;;;;;;27.58;14.32;;;;;;;9.54;76.32;99597.69;10371523;28;20456;-83
2023/03/26 18:51:26;;;;;;;40.83;16.73;;;;;;;9.37;77.45;99594.34;10371246;28;20520;-81
2023/03/26 18:56:38;;;;;;;24.95;12.25;;;;;;;9.33;77.67;99585.09;10372084;28;20426;-83
2023/03/26 19:01:40;;;;;;;21.25;12.40;;;;;;;9.34;77.20;99625.69;10376488;28;20132;-83
2023/03/26 19:06:42;;;;;;;22.30;12.05;;;;;;;9.14;77.39;99589.03;10378649;28;20044;-83
2023/03/26 19:11:44;;;;;;;33.80;16.02;;;;;;;9.26;77.83;99599.22;10379187;28;20736;-84
2023/03/26 19:16:55;;;;;;;25.08;12.75;;;;;;;8.99;77.74;99590.00;10377795;28;20108;-83
2023/03/26 19:21:55;;;;;;;103.13;44.22;;;;;;;8.62;77.30;99557.13;10378935;28;20041;-82
2023/03/26 19:26:57;;;;;;;94.18;40.55;;;;;;;8.64;77.84;99574.47;10378126;28;20048;-84
2023/03/26 19:32:12;;;;;;;89.80;37.88;;;;;;;8.72;80.06;99583.38;10377844;28;20033;-84
2023/03/26 19:37:25;;;;;;;91.60;37.22;;;;;;;8.33;79.34;99520.69;10377435;28;20089;-84
2023/03/26 19:42:30;;;;;;;91.95;38.03;;;;;;;8.66;79.21;99579.59;10377517;28;20095;-83
2023/03/26 19:47:40;;;;;;;61.13;30.05;;;;;;;8.27;79.65;99563.72;10375976;28;20422;-84
2023/03/26 19:52:40;;;;;;;65.30;27.17;;;;;;;8.13;78.97;99565.25;10377659;28;20480;-84
2023/03/26 19:57:41;;;;;;;47.80;23.90;;;;;;;8.26;79.32;99581.41;10376378;28;20129;-84
2023/03/26 20:02:47;;;;;;;46.85;21.45;;;;;;;8.23;79.73;99569.34;10376764;28;20049;-84
2023/03/26 20:07:53;;;;;;;70.72;28.88;;;;;;;7.97;81.15;99522.00;10376406;28;20073;-84
2023/03/26 20:12:54;;;;;;;53.65;26.05;;;;;;;7.77;80.18;99487.19;10375008;28;20092;-83
2023/03/26 20:17:55;;;;;;;39.30;19.73;;;;;;;7.99;79.44;99529.78;10375806;28;20085;-83
2023/03/26 20:22:55;;;;;;;35.67;18.10;;;;;;;7.90;79.49;99570.47;10376665;28;20052;-84
2023/03/26 20:27:57;;;;;;;27.90;15.68;;;;;;;7.63;79.97;99572.50;10375565;28;20124;-84
2023/03/26 20:32:59;;;;;;;26.17;16.33;;;;;;;7.61;80.53;99563.09;10374873;28;20057;-84
2023/03/26 20:38:00;;;;;;;30.48;15.93;;;;;;;7.15;81.61;99473.81;10375420;28;20468;-83
2023/03/26 20:43:00;;;;;;;32.75;15.23;;;;;;;7.18;81.90;99496.41;10373929;28;20038;-82
2023/03/26 20:48:01;;;;;;;47.22;19.33;;;;;;;7.36;83.22;99531.41;10376246;28;20065;-83
2023/03/26 20:53:03;;;;;;;41.00;19.80;;;;;;;7.52;82.83;99539.31;10374247;28;20045;-83
2023/03/26 20:58:03;;;;;;;45.67;21.70;;;;;;;7.31;82.98;99508.13;10374368;28;20042;-83
2023/03/26 21:03:04;;;;;;;55.80;22.73;;;;;;;7.34;82.96;99520.19;10374199;28;20038;-83
2023/03/26 21:08:06;;;;;;;26.73;14.02;;;;;;;7.05;82.28;99537.38;10375144;28;20042;-83
2023/03/26 21:13:13;;;;;;;29.75;15.50;;;;;;;6.74;83.71;99529.25;10373432;28;20042;-83
2023/03/26 21:18:14;;;;;;;37.75;18.83;;;;;;;6.33;83.85;99455.31;10373678;28;20100;-84
2023/03/26 21:23:23;;;;;;;39.90;18.38;;;;;;;6.95;84.83;99552.56;10372999;28;20463;-84
2023/03/26 21:28:59;;;;;;;30.67;16.55;;;;;;;6.96;84.73;99556.00;10372990;28;20497;-84
2023/03/26 21:34:01;;;;;;;31.85;16.85;;;;;;;6.35;82.78;99500.84;10364020;28;20076;-83
2023/03/26 21:39:05;;;;;;;40.83;21.25;;;;;;;6.61;82.99;99528.91;10373137;28;20046;-83
2023/03/26 21:44:07;;;;;;;38.15;19.77;;;;;;;6.68;83.46;99550.22;10372449;28;20555;-83
2023/03/26 21:49:08;;;;;;;46.55;19.85;;;;;;;6.67;83.55;99567.03;10373749;28;20057;-83
2023/03/26 21:54:30;;;;;;;39.17;20.33;;;;;;;6.56;85.36;99578.72;10372291;28;20038;-83
2023/03/26 21:59:42;;;;;;;65.47;24.05;;;;;;;6.29;84.66;99546.31;10373145;28;20132;-83
2023/03/26 22:04:52;;;;;;;53.47;20.98;;;;;;;6.10;84.84;99499.94;10371988;28;20124;-83
2023/03/26 22:09:54;;;;;;;24.15;14.63;;;;;;;6.36;83.34;99589.53;10372605;28;20068;-84
2023/03/26 22:14:55;;;;;;;20.02;12.40;;;;;;;6.32;84.47;99584.75;10371767;28;20081;-83
2023/03/26 22:19:56;;;;;;;18.10;11.82;;;;;;;6.34;84.45;99583.59;10372386;28;20046;-83
2023/03/26 22:24:57;;;;;;;18.15;11.77;;;;;;;5.87;84.32;99518.09;10372699;28;20049;-83
2023/03/26 22:29:58;;;;;;;20.92;12.10;;;;;;;6.32;85.41;99584.75;10371577;28;20460;-83
2023/03/26 22:34:59;;;;;;;19.00;11.15;;;;;;;6.24;85.04;99571.50;10374702;28;20498;-82
2023/03/26 22:40:00;;;;;;;17.77;11.95;;;;;;;6.39;85.50;99586.56;10380380;28;20038;-82
2023/03/26 22:45:01;;;;;;;21.27;11.95;;;;;;;5.26;85.36;99401.41;10379785;28;20107;-82
2023/03/26 22:50:03;;;;;;;16.95;11.60;;;;;;;6.31;85.40;99565.47;10380281;28;20034;-83
2023/03/26 22:55:04;;;;;;;49.42;17.70;;;;;;;6.06;84.99;99526.78;10379283;28;20128;-82
2023/03/26 23:00:15;;;;;;;36.75;14.98;;;;;;;6.29;85.37;99551.59;10380423;28;20084;-82
2023/03/26 23:05:16;;;;;;;22.17;12.93;;;;;;;6.15;84.82;99523.19;10379063;28;20088;-82
2023/03/26 23:10:17;;;;;;;31.13;15.57;;;;;;;6.39;84.79;99551.44;10378797;28;20038;-83
2023/03/26 23:15:19;;;;;;;28.58;15.23;;;;;;;6.15;84.21;99517.91;10378488;28;20045;-83
2023/03/26 23:20:20;;;;;;;34.55;16.02;;;;;;;6.34;84.79;99553.72;10378187;28;20131;-83
2023/03/26 23:25:21;;;;;;;28.38;15.20;;;;;;;6.39;84.36;99560.19;10377557;28;20099;-83
2023/03/26 23:30:22;;;;;;;43.72;16.05;;;;;;;5.78;84.30;99481.34;10377011;28;20050;-84
2023/03/26 23:35:23;;;;;;;30.73;15.02;;;;;;;6.15;84.49;99565.38;10378542;28;20513;-82
2023/03/26 23:40:24;;;;;;;35.50;16.33;;;;;;;5.85;85.34;99549.06;10378013;28;20041;-83
2023/03/26 23:45:24;;;;;;;46.28;20.95;;;;;;;5.62;85.38;99517.13;10375836;28;20434;-83
2023/03/26 23:50:27;;;;;;;43.80;20.98;;;;;;;5.78;85.82;99519.06;10377673;28;20481;-83